sensor_id;sensor_type;location;lat;lon;timestamp;pressure;altitude;pressure_sealevel;temperature;humidity
8059;BME280;75058;42.668;23.396;2024-01-07T00:00:53;93693.75;;;6.04;67.08
8059;BME280;75058;42.668;23.396;2024-01-07T00:03:21;93692.31;;;6.24;68.47
8059;BME280;75058;42.668;23.396;2024-01-07T00:05:49;93688.75;;;6.98;65.44
8059;BME280;75058;42.668;23.396;2024-01-07T00:08:17;93685.66;;;7.01;65.29
8059;BME280;75058;42.668;23.396;2024-01-07T00:10:45;93677.50;;;7.26;64.48
8059;BME280;75058;42.668;23.396;2024-01-07T00:13:13;93659.09;;;7.49;64.80
8059;BME280;75058;42.668;23.396;2024-01-07T00:15:43;93666.13;;;6.99;64.86
8059;BME280;75058;42.668;23.396;2024-01-07T00:18:12;93658.50;;;6.08;67.09
8059;BME280;75058;42.668;23.396;2024-01-07T00:20:41;93661.03;;;5.80;69.38
8059;BME280;75058;42.668;23.396;2024-01-07T00:23:11;93657.31;;;6.27;68.81
8059;BME280;75058;42.668;23.396;2024-01-07T00:25:39;93653.59;;;6.79;68.05
8059;BME280;75058;42.668;23.396;2024-01-07T00:28:07;93654.69;;;6.67;65.95
8059;BME280;75058;42.668;23.396;2024-01-07T00:30:35;93646.19;;;7.05;67.48
8059;BME280;75058;42.668;23.396;2024-01-07T00:33:05;93632.00;;;6.79;66.15
8059;BME280;75058;42.668;23.396;2024-01-07T00:35:33;93631.06;;;6.85;66.59
8059;BME280;75058;42.668;23.396;2024-01-07T00:38:01;93631.94;;;5.89;68.03
8059;BME280;75058;42.668;23.396;2024-01-07T00:40:29;93618.69;;;5.39;68.77
8059;BME280;75058;42.668;23.396;2024-01-07T00:42:57;93630.63;;;5.29;69.50
8059;BME280;75058;42.668;23.396;2024-01-07T00:45:25;93624.66;;;5.05;69.74
8059;BME280;75058;42.668;23.396;2024-01-07T00:47:53;93629.50;;;5.02;69.18
8059;BME280;75058;42.668;23.396;2024-01-07T00:50:24;93616.84;;;4.70;70.12
8059;BME280;75058;42.668;23.396;2024-01-07T00:52:52;93599.72;;;4.58;70.69
8059;BME280;75058;42.668;23.396;2024-01-07T00:55:23;93592.28;;;4.50;71.44
8059;BME280;75058;42.668;23.396;2024-01-07T00:57:51;93594.44;;;4.53;71.35
8059;BME280;75058;42.668;23.396;2024-01-07T01:00:19;93594.69;;;4.86;70.21
8059;BME280;75058;42.668;23.396;2024-01-07T01:02:47;93597.84;;;4.88;70.29
8059;BME280;75058;42.668;23.396;2024-01-07T01:05:15;93596.50;;;4.97;69.82
8059;BME280;75058;42.668;23.396;2024-01-07T01:07:45;93602.69;;;5.08;70.03
8059;BME280;75058;42.668;23.396;2024-01-07T01:10:13;93587.69;;;5.33;69.29
8059;BME280;75058;42.668;23.396;2024-01-07T01:12:43;93569.00;;;5.19;68.92
8059;BME280;75058;42.668;23.396;2024-01-07T01:15:11;93565.81;;;5.40;69.26
8059;BME280;75058;42.668;23.396;2024-01-07T01:17:39;93550.69;;;5.49;69.05
8059;BME280;75058;42.668;23.396;2024-01-07T01:20:08;93560.19;;;5.72;68.78
8059;BME280;75058;42.668;23.396;2024-01-07T01:22:37;93550.44;;;5.90;68.25
8059;BME280;75058;42.668;23.396;2024-01-07T01:25:07;93534.28;;;6.00;67.88
8059;BME280;75058;42.668;23.396;2024-01-07T01:27:35;93536.59;;;6.13;67.54
8059;BME280;75058;42.668;23.396;2024-01-07T01:30:04;93531.88;;;6.27;67.73
8059;BME280;75058;42.668;23.396;2024-01-07T01:32:33;93501.97;;;5.79;67.62
8059;BME280;75058;42.668;23.396;2024-01-07T01:35:01;93519.78;;;5.76;69.10
8059;BME280;75058;42.668;23.396;2024-01-07T01:37:29;93511.16;;;5.98;67.99
8059;BME280;75058;42.668;23.396;2024-01-07T01:39:59;93497.88;;;5.83;68.77
8059;BME280;75058;42.668;23.396;2024-01-07T01:42:29;93491.00;;;5.89;68.46
8059;BME280;75058;42.668;23.396;2024-01-07T01:44:58;93490.06;;;5.95;68.18
8059;BME280;75058;42.668;23.396;2024-01-07T01:47:28;93485.50;;;5.74;69.11
8059;BME280;75058;42.668;23.396;2024-01-07T01:49:58;93482.44;;;5.77;69.05
8059;BME280;75058;42.668;23.396;2024-01-07T01:52:26;93467.63;;;5.89;68.90
8059;BME280;75058;42.668;23.396;2024-01-07T01:54:55;93467.09;;;5.87;68.87
8059;BME280;75058;42.668;23.396;2024-01-07T01:57:24;93457.50;;;6.04;68.68
8059;BME280;75058;42.668;23.396;2024-01-07T01:59:58;93457.59;;;6.09;68.38
8059;BME280;75058;42.668;23.396;2024-01-07T02:02:30;93453.34;;;6.19;68.26
8059;BME280;75058;42.668;23.396;2024-01-07T02:05:01;93461.03;;;5.70;68.61
8059;BME280;75058;42.668;23.396;2024-01-07T02:07:31;93460.94;;;5.93;69.50
8059;BME280;75058;42.668;23.396;2024-01-07T02:09:59;93471.81;;;6.40;68.38
8059;BME280;75058;42.668;23.396;2024-01-07T02:12:28;93474.41;;;6.40;67.29
8059;BME280;75058;42.668;23.396;2024-01-07T02:14:57;93470.34;;;5.82;68.62
8059;BME280;75058;42.668;23.396;2024-01-07T02:17:26;93450.75;;;6.19;68.77
8059;BME280;75058;42.668;23.396;2024-01-07T02:19:54;93445.91;;;5.50;69.71
8059;BME280;75058;42.668;23.396;2024-01-07T02:22:23;93432.50;;;6.14;70.93
8059;BME280;75058;42.668;23.396;2024-01-07T02:24:52;93422.34;;;6.13;69.79
8059;BME280;75058;42.668;23.396;2024-01-07T02:27:20;93403.91;;;6.48;70.08
8059;BME280;75058;42.668;23.396;2024-01-07T02:29:49;93382.13;;;5.99;68.68
8059;BME280;75058;42.668;23.396;2024-01-07T02:32:17;93380.41;;;6.04;70.66
8059;BME280;75058;42.668;23.396;2024-01-07T02:34:45;93356.41;;;6.14;70.29
8059;BME280;75058;42.668;23.396;2024-01-07T02:37:13;93346.91;;;6.19;69.34
8059;BME280;75058;42.668;23.396;2024-01-07T02:39:41;93369.00;;;6.22;71.19
8059;BME280;75058;42.668;23.396;2024-01-07T02:42:23;93361.50;;;6.64;70.56
8059;BME280;75058;42.668;23.396;2024-01-07T02:44:51;93378.66;;;6.86;67.32
8059;BME280;75058;42.668;23.396;2024-01-07T02:47:19;93381.50;;;6.63;68.29
8059;BME280;75058;42.668;23.396;2024-01-07T02:49:47;93385.69;;;6.64;67.73
8059;BME280;75058;42.668;23.396;2024-01-07T02:52:16;93384.84;;;6.80;68.44
8059;BME280;75058;42.668;23.396;2024-01-07T02:54:44;93381.44;;;7.01;66.21
8059;BME280;75058;42.668;23.396;2024-01-07T02:57:12;93378.09;;;7.01;68.58
8059;BME280;75058;42.668;23.396;2024-01-07T02:59:41;93382.03;;;7.84;65.30
8059;BME280;75058;42.668;23.396;2024-01-07T03:02:09;93401.09;;;7.62;66.10
8059;BME280;75058;42.668;23.396;2024-01-07T03:04:37;93388.88;;;7.63;66.59
8059;BME280;75058;42.668;23.396;2024-01-07T03:07:05;93379.03;;;7.70;66.68
8059;BME280;75058;42.668;23.396;2024-01-07T03:09:34;93380.00;;;7.59;67.99
8059;BME280;75058;42.668;23.396;2024-01-07T03:12:02;93373.16;;;8.16;64.94
8059;BME280;75058;42.668;23.396;2024-01-07T03:14:30;93379.00;;;8.70;65.08
8059;BME280;75058;42.668;23.396;2024-01-07T03:17:00;93375.69;;;8.85;64.77
8059;BME280;75058;42.668;23.396;2024-01-07T03:19:28;93369.13;;;8.77;65.19
8059;BME280;75058;42.668;23.396;2024-01-07T03:21:56;93379.44;;;9.04;64.26
8059;BME280;75058;42.668;23.396;2024-01-07T03:24:24;93399.91;;;8.07;64.97
8059;BME280;75058;42.668;23.396;2024-01-07T03:26:53;93405.81;;;7.65;66.93
8059;BME280;75058;42.668;23.396;2024-01-07T03:29:20;93398.50;;;7.14;67.07
8059;BME280;75058;42.668;23.396;2024-01-07T03:31:48;93399.28;;;6.71;68.64
8059;BME280;75058;42.668;23.396;2024-01-07T03:34:19;93396.75;;;6.76;69.17
8059;BME280;75058;42.668;23.396;2024-01-07T03:36:47;93398.81;;;7.18;68.35
8059;BME280;75058;42.668;23.396;2024-01-07T03:39:15;93386.09;;;6.99;69.12
8059;BME280;75058;42.668;23.396;2024-01-07T03:41:43;93392.84;;;6.57;70.64
8059;BME280;75058;42.668;23.396;2024-01-07T03:44:11;93392.09;;;7.00;71.52
8059;BME280;75058;42.668;23.396;2024-01-07T03:46:39;93392.03;;;6.73;71.47
8059;BME280;75058;42.668;23.396;2024-01-07T03:49:07;93388.13;;;6.33;72.27
8059;BME280;75058;42.668;23.396;2024-01-07T03:51:37;93382.91;;;6.16;72.01
8059;BME280;75058;42.668;23.396;2024-01-07T03:54:05;93382.84;;;6.28;72.57
8059;BME280;75058;42.668;23.396;2024-01-07T03:56:33;93380.25;;;6.11;73.11
8059;BME280;75058;42.668;23.396;2024-01-07T03:59:01;93378.38;;;6.06;72.85
8059;BME280;75058;42.668;23.396;2024-01-07T04:01:29;93382.91;;;5.66;73.28
8059;BME280;75058;42.668;23.396;2024-01-07T04:03:57;93383.25;;;5.86;73.70
8059;BME280;75058;42.668;23.396;2024-01-07T04:06:25;93385.75;;;5.81;74.05
8059;BME280;75058;42.668;23.396;2024-01-07T04:08:55;93375.19;;;5.71;74.16
8059;BME280;75058;42.668;23.396;2024-01-07T04:11:23;93366.00;;;5.80;73.46
8059;BME280;75058;42.668;23.396;2024-01-07T04:13:51;93355.16;;;5.83;73.93
8059;BME280;75058;42.668;23.396;2024-01-07T04:16:20;93362.72;;;5.85;74.21
8059;BME280;75058;42.668;23.396;2024-01-07T04:18:48;93364.28;;;6.19;73.66
8059;BME280;75058;42.668;23.396;2024-01-07T04:21:20;93357.22;;;5.98;73.89
8059;BME280;75058;42.668;23.396;2024-01-07T04:23:48;93362.47;;;5.86;74.74
8059;BME280;75058;42.668;23.396;2024-01-07T04:26:18;93346.19;;;5.91;74.16
8059;BME280;75058;42.668;23.396;2024-01-07T04:28:46;93349.03;;;6.06;74.41
8059;BME280;75058;42.668;23.396;2024-01-07T04:31:14;93348.38;;;5.82;74.99
8059;BME280;75058;42.668;23.396;2024-01-07T04:33:42;93341.66;;;5.98;74.63
8059;BME280;75058;42.668;23.396;2024-01-07T04:36:12;93334.13;;;6.18;74.27
8059;BME280;75058;42.668;23.396;2024-01-07T04:38:40;93335.31;;;6.27;74.36
8059;BME280;75058;42.668;23.396;2024-01-07T04:41:08;93335.72;;;6.19;74.68
8059;BME280;75058;42.668;23.396;2024-01-07T04:43:37;93328.34;;;6.11;74.56
8059;BME280;75058;42.668;23.396;2024-01-07T04:46:07;93336.13;;;6.11;75.25
8059;BME280;75058;42.668;23.396;2024-01-07T04:48:37;93329.56;;;6.25;74.74
8059;BME280;75058;42.668;23.396;2024-01-07T04:51:06;93339.44;;;6.06;75.53
8059;BME280;75058;42.668;23.396;2024-01-07T04:53:35;93350.19;;;5.82;75.32
8059;BME280;75058;42.668;23.396;2024-01-07T04:56:04;93354.91;;;5.52;75.94
8059;BME280;75058;42.668;23.396;2024-01-07T04:58:32;93350.28;;;5.54;76.08
8059;BME280;75058;42.668;23.396;2024-01-07T05:01:02;93352.34;;;5.23;76.26
8059;BME280;75058;42.668;23.396;2024-01-07T05:03:30;93354.66;;;5.36;76.26
8059;BME280;75058;42.668;23.396;2024-01-07T05:05:58;93350.72;;;5.34;76.24
8059;BME280;75058;42.668;23.396;2024-01-07T05:08:27;93342.72;;;5.24;77.04
8059;BME280;75058;42.668;23.396;2024-01-07T05:10:55;93339.75;;;5.77;75.70
8059;BME280;75058;42.668;23.396;2024-01-07T05:13:23;93341.09;;;5.79;74.92
8059;BME280;75058;42.668;23.396;2024-01-07T05:15:51;93330.69;;;5.46;75.61
8059;BME280;75058;42.668;23.396;2024-01-07T05:18:22;93322.03;;;5.40;75.84
8059;BME280;75058;42.668;23.396;2024-01-07T05:20:52;93332.03;;;5.65;75.97
8059;BME280;75058;42.668;23.396;2024-01-07T05:23:20;93327.53;;;5.61;75.20
8059;BME280;75058;42.668;23.396;2024-01-07T05:25:48;93337.84;;;5.72;75.63
8059;BME280;75058;42.668;23.396;2024-01-07T05:28:16;93349.69;;;5.96;74.75
8059;BME280;75058;42.668;23.396;2024-01-07T05:30:46;93348.94;;;6.01;74.78
8059;BME280;75058;42.668;23.396;2024-01-07T05:33:15;93347.06;;;6.13;74.88
8059;BME280;75058;42.668;23.396;2024-01-07T05:35:44;93344.94;;;6.10;74.88
8059;BME280;75058;42.668;23.396;2024-01-07T05:38:12;93335.41;;;5.82;75.22
8059;BME280;75058;42.668;23.396;2024-01-07T05:40:40;93332.75;;;5.94;75.23
8059;BME280;75058;42.668;23.396;2024-01-07T05:43:08;93329.81;;;6.23;74.97
8059;BME280;75058;42.668;23.396;2024-01-07T05:45:36;93326.03;;;6.14;74.68
8059;BME280;75058;42.668;23.396;2024-01-07T05:48:05;93335.28;;;5.89;75.40
8059;BME280;75058;42.668;23.396;2024-01-07T05:50:33;93352.25;;;6.13;74.62
8059;BME280;75058;42.668;23.396;2024-01-07T05:53:03;93344.50;;;6.18;74.81
8059;BME280;75058;42.668;23.396;2024-01-07T05:55:31;93336.19;;;6.16;74.22
8059;BME280;75058;42.668;23.396;2024-01-07T05:57:59;93352.25;;;6.13;74.47
8059;BME280;75058;42.668;23.396;2024-01-07T06:00:27;93355.03;;;6.45;73.83
8059;BME280;75058;42.668;23.396;2024-01-07T06:02:55;93363.00;;;6.60;73.09
8059;BME280;75058;42.668;23.396;2024-01-07T06:05:24;93353.72;;;6.64;73.18
8059;BME280;75058;42.668;23.396;2024-01-07T06:07:52;93342.47;;;6.58;73.18
8059;BME280;75058;42.668;23.396;2024-01-07T06:10:22;93339.94;;;6.25;73.84
8059;BME280;75058;42.668;23.396;2024-01-07T06:12:50;93329.72;;;6.18;74.13
8059;BME280;75058;42.668;23.396;2024-01-07T06:15:18;93336.41;;;6.53;73.67
8059;BME280;75058;42.668;23.396;2024-01-07T06:17:46;93334.19;;;6.61;73.66
8059;BME280;75058;42.668;23.396;2024-01-07T06:20:15;93330.31;;;6.42;74.33
8059;BME280;75058;42.668;23.396;2024-01-07T06:22:43;93321.34;;;6.11;74.98
8059;BME280;75058;42.668;23.396;2024-01-07T06:25:11;93321.84;;;6.30;74.68
8059;BME280;75058;42.668;23.396;2024-01-07T06:27:41;93323.00;;;6.39;74.37
8059;BME280;75058;42.668;23.396;2024-01-07T06:30:10;93323.59;;;6.46;74.36
8059;BME280;75058;42.668;23.396;2024-01-07T06:32:38;93323.75;;;6.18;74.96
8059;BME280;75058;42.668;23.396;2024-01-07T06:35:07;93330.94;;;6.11;74.82
8059;BME280;75058;42.668;23.396;2024-01-07T06:37:35;93348.91;;;6.34;74.59
8059;BME280;75058;42.668;23.396;2024-01-07T06:40:04;93348.50;;;6.42;74.72
8059;BME280;75058;42.668;23.396;2024-01-07T06:42:32;93342.75;;;6.40;74.50
8059;BME280;75058;42.668;23.396;2024-01-07T06:45:02;93331.53;;;6.18;74.61
8059;BME280;75058;42.668;23.396;2024-01-07T06:47:30;93363.94;;;6.32;74.73
8059;BME280;75058;42.668;23.396;2024-01-07T06:49:59;93362.53;;;6.41;74.95
8059;BME280;75058;42.668;23.396;2024-01-07T06:52:27;93360.59;;;6.53;74.21
8059;BME280;75058;42.668;23.396;2024-01-07T06:54:55;93369.47;;;6.57;74.16
8059;BME280;75058;42.668;23.396;2024-01-07T06:57:23;93367.22;;;6.44;74.26
8059;BME280;75058;42.668;23.396;2024-01-07T06:59:52;93366.31;;;6.55;74.59
8059;BME280;75058;42.668;23.396;2024-01-07T07:02:21;93362.94;;;6.55;74.30
8059;BME280;75058;42.668;23.396;2024-01-07T07:04:49;93368.56;;;6.47;74.34
8059;BME280;75058;42.668;23.396;2024-01-07T07:07:18;93364.19;;;6.52;74.50
8059;BME280;75058;42.668;23.396;2024-01-07T07:09:46;93367.97;;;6.61;74.29
8059;BME280;75058;42.668;23.396;2024-01-07T07:12:14;93351.34;;;6.62;73.92
8059;BME280;75058;42.668;23.396;2024-01-07T07:14:42;93352.44;;;6.66;73.79
8059;BME280;75058;42.668;23.396;2024-01-07T07:17:11;93350.13;;;6.91;73.96
8059;BME280;75058;42.668;23.396;2024-01-07T07:19:42;93341.78;;;6.89;74.30
8059;BME280;75058;42.668;23.396;2024-01-07T07:22:11;93336.31;;;6.86;74.21
8059;BME280;75058;42.668;23.396;2024-01-07T07:24:41;93332.56;;;6.77;74.82
8059;BME280;75058;42.668;23.396;2024-01-07T07:27:09;93333.94;;;6.84;74.70
8059;BME280;75058;42.668;23.396;2024-01-07T07:29:38;93344.66;;;7.15;73.72
8059;BME280;75058;42.668;23.396;2024-01-07T07:32:06;93348.50;;;7.34;73.52
8059;BME280;75058;42.668;23.396;2024-01-07T07:34:35;93348.66;;;7.49;72.89
8059;BME280;75058;42.668;23.396;2024-01-07T07:37:05;93351.69;;;7.67;72.20
8059;BME280;75058;42.668;23.396;2024-01-07T07:39:33;93345.16;;;7.65;72.46
8059;BME280;75058;42.668;23.396;2024-01-07T07:42:01;93349.13;;;7.19;73.20
8059;BME280;75058;42.668;23.396;2024-01-07T07:44:29;93348.06;;;7.15;72.92
8059;BME280;75058;42.668;23.396;2024-01-07T07:46:57;93354.44;;;7.56;72.61
8059;BME280;75058;42.668;23.396;2024-01-07T07:49:25;93342.72;;;7.85;69.99
8059;BME280;75058;42.668;23.396;2024-01-07T07:51:55;93338.88;;;7.93;69.23
8059;BME280;75058;42.668;23.396;2024-01-07T07:54:24;93343.34;;;7.65;70.39
8059;BME280;75058;42.668;23.396;2024-01-07T07:56:53;93337.22;;;7.82;71.33
8059;BME280;75058;42.668;23.396;2024-01-07T07:59:21;93336.47;;;7.86;70.06
8059;BME280;75058;42.668;23.396;2024-01-07T08:01:49;93335.25;;;7.62;71.09
8059;BME280;75058;42.668;23.396;2024-01-07T08:04:17;93326.31;;;7.53;70.44
8059;BME280;75058;42.668;23.396;2024-01-07T08:06:45;93329.09;;;7.46;70.60
8059;BME280;75058;42.668;23.396;2024-01-07T08:09:14;93342.41;;;7.23;70.98
8059;BME280;75058;42.668;23.396;2024-01-07T08:11:43;93327.53;;;7.19;71.19
8059;BME280;75058;42.668;23.396;2024-01-07T08:14:11;93333.63;;;7.29;71.44
8059;BME280;75058;42.668;23.396;2024-01-07T08:16:40;93324.94;;;7.19;72.25
8059;BME280;75058;42.668;23.396;2024-01-07T08:19:08;93335.59;;;7.17;72.48
8059;BME280;75058;42.668;23.396;2024-01-07T08:21:36;93341.22;;;7.31;71.55
8059;BME280;75058;42.668;23.396;2024-01-07T08:24:05;93333.84;;;7.23;71.98
8059;BME280;75058;42.668;23.396;2024-01-07T08:26:33;93343.69;;;7.21;72.83
8059;BME280;75058;42.668;23.396;2024-01-07T08:29:02;93309.19;;;7.30;73.39
8059;BME280;75058;42.668;23.396;2024-01-07T08:31:31;93323.91;;;7.46;73.33
8059;BME280;75058;42.668;23.396;2024-01-07T08:34:00;93337.16;;;7.45;72.77
8059;BME280;75058;42.668;23.396;2024-01-07T08:36:28;93337.47;;;7.48;73.29
8059;BME280;75058;42.668;23.396;2024-01-07T08:38:56;93337.50;;;7.53;72.65
8059;BME280;75058;42.668;23.396;2024-01-07T08:41:24;93334.91;;;7.85;73.27
8059;BME280;75058;42.668;23.396;2024-01-07T08:43:54;93332.13;;;7.97;72.13
8059;BME280;75058;42.668;23.396;2024-01-07T08:46:23;93325.41;;;7.69;73.11
8059;BME280;75058;42.668;23.396;2024-01-07T08:48:51;93319.69;;;7.72;72.45
8059;BME280;75058;42.668;23.396;2024-01-07T08:51:19;93319.00;;;7.82;72.87
8059;BME280;75058;42.668;23.396;2024-01-07T08:53:47;93316.47;;;7.92;72.40
8059;BME280;75058;42.668;23.396;2024-01-07T08:56:16;93314.53;;;8.14;72.13
8059;BME280;75058;42.668;23.396;2024-01-07T08:58:44;93314.53;;;8.50;71.49
8059;BME280;75058;42.668;23.396;2024-01-07T09:01:12;93331.81;;;8.25;71.78
8059;BME280;75058;42.668;23.396;2024-01-07T09:03:42;93313.78;;;8.55;71.96
8059;BME280;75058;42.668;23.396;2024-01-07T09:06:11;93313.47;;;8.51;70.83
8059;BME280;75058;42.668;23.396;2024-01-07T09:08:39;93323.16;;;8.19;72.32
8059;BME280;75058;42.668;23.396;2024-01-07T09:11:07;93317.72;;;8.21;72.39
8059;BME280;75058;42.668;23.396;2024-01-07T09:13:37;93330.69;;;8.16;72.52
8059;BME280;75058;42.668;23.396;2024-01-07T09:16:10;93336.63;;;8.38;72.45
8059;BME280;75058;42.668;23.396;2024-01-07T09:18:39;93320.25;;;8.52;71.96
8059;BME280;75058;42.668;23.396;2024-01-07T09:21:09;93314.75;;;8.49;71.87
8059;BME280;75058;42.668;23.396;2024-01-07T09:23:37;93323.19;;;8.61;70.65
8059;BME280;75058;42.668;23.396;2024-01-07T09:26:05;93307.38;;;8.93;67.82
8059;BME280;75058;42.668;23.396;2024-01-07T09:28:34;93305.56;;;8.93;66.42
8059;BME280;75058;42.668;23.396;2024-01-07T09:31:02;93312.44;;;9.29;66.10
8059;BME280;75058;42.668;23.396;2024-01-07T09:33:31;93312.69;;;9.13;64.08
8059;BME280;75058;42.668;23.396;2024-01-07T09:35:59;93311.63;;;9.24;65.32
8059;BME280;75058;42.668;23.396;2024-01-07T09:38:42;93303.34;;;9.57;64.66
8059;BME280;75058;42.668;23.396;2024-01-07T09:41:11;93287.44;;;9.79;63.12
8059;BME280;75058;42.668;23.396;2024-01-07T09:43:39;93276.72;;;9.65;61.76
8059;BME280;75058;42.668;23.396;2024-01-07T09:46:07;93261.56;;;9.57;62.18
8059;BME280;75058;42.668;23.396;2024-01-07T09:48:35;93284.56;;;9.70;62.57
8059;BME280;75058;42.668;23.396;2024-01-07T09:51:04;93297.84;;;9.99;61.58
8059;BME280;75058;42.668;23.396;2024-01-07T09:53:35;93291.31;;;9.46;62.08
8059;BME280;75058;42.668;23.396;2024-01-07T09:56:12;93288.75;;;9.81;61.82
8059;BME280;75058;42.668;23.396;2024-01-07T09:58:41;93299.72;;;9.68;61.53
8059;BME280;75058;42.668;23.396;2024-01-07T10:01:10;93292.63;;;9.89;60.80
8059;BME280;75058;42.668;23.396;2024-01-07T10:03:38;93288.97;;;9.95;60.99
8059;BME280;75058;42.668;23.396;2024-01-07T10:06:07;93294.22;;;10.00;61.12
8059;BME280;75058;42.668;23.396;2024-01-07T10:08:35;93289.78;;;9.85;61.07
8059;BME280;75058;42.668;23.396;2024-01-07T10:11:03;93295.53;;;9.87;61.42
8059;BME280;75058;42.668;23.396;2024-01-07T10:13:33;93297.06;;;9.43;62.14
8059;BME280;75058;42.668;23.396;2024-01-07T10:16:01;93288.19;;;9.69;62.76
8059;BME280;75058;42.668;23.396;2024-01-07T10:18:30;93290.81;;;9.54;62.49
8059;BME280;75058;42.668;23.396;2024-01-07T10:21:02;93273.56;;;9.58;62.88
8059;BME280;75058;42.668;23.396;2024-01-07T10:23:31;93267.31;;;9.69;62.39
8059;BME280;75058;42.668;23.396;2024-01-07T10:25:59;93260.03;;;9.66;62.65
8059;BME280;75058;42.668;23.396;2024-01-07T10:28:42;93269.41;;;9.57;62.35
8059;BME280;75058;42.668;23.396;2024-01-07T10:31:11;93257.66;;;9.45;63.00
8059;BME280;75058;42.668;23.396;2024-01-07T10:33:40;93257.66;;;9.50;63.21
8059;BME280;75058;42.668;23.396;2024-01-07T10:36:09;93249.28;;;9.63;63.20
8059;BME280;75058;42.668;23.396;2024-01-07T10:38:38;93247.75;;;9.62;63.19
8059;BME280;75058;42.668;23.396;2024-01-07T10:41:11;93255.31;;;9.78;62.60
8059;BME280;75058;42.668;23.396;2024-01-07T10:43:39;93238.84;;;9.88;61.31
8059;BME280;75058;42.668;23.396;2024-01-07T10:46:10;93224.22;;;9.72;60.87
8059;BME280;75058;42.668;23.396;2024-01-07T10:48:47;93232.84;;;9.72;59.97
8059;BME280;75058;42.668;23.396;2024-01-07T10:51:20;93228.41;;;9.83;59.60
8059;BME280;75058;42.668;23.396;2024-01-07T10:53:52;93223.44;;;9.71;59.63
8059;BME280;75058;42.668;23.396;2024-01-07T10:56:23;93215.09;;;9.74;59.66
8059;BME280;75058;42.668;23.396;2024-01-07T10:58:52;93232.03;;;9.87;59.18
8059;BME280;75058;42.668;23.396;2024-01-07T11:01:22;93246.38;;;9.99;59.59
8059;BME280;75058;42.668;23.396;2024-01-07T11:03:57;93256.25;;;10.38;59.04
8059;BME280;75058;42.668;23.396;2024-01-07T11:06:32;93245.59;;;10.04;60.48
8059;BME280;75058;42.668;23.396;2024-01-07T11:09:14;93228.38;;;10.13;59.87
8059;BME280;75058;42.668;23.396;2024-01-07T11:11:46;93232.56;;;9.94;60.70
8059;BME280;75058;42.668;23.396;2024-01-07T11:14:35;93234.66;;;9.82;61.74
8059;BME280;75058;42.668;23.396;2024-01-07T11:17:05;93234.13;;;9.85;62.13
8059;BME280;75058;42.668;23.396;2024-01-07T11:19:35;93232.06;;;9.67;63.20
8059;BME280;75058;42.668;23.396;2024-01-07T11:22:23;93234.16;;;9.65;63.08
8059;BME280;75058;42.668;23.396;2024-01-07T11:24:52;93240.41;;;9.89;62.64
8059;BME280;75058;42.668;23.396;2024-01-07T11:27:21;93243.25;;;10.18;61.76
8059;BME280;75058;42.668;23.396;2024-01-07T11:29:55;93226.00;;;10.22;62.39
8059;BME280;75058;42.668;23.396;2024-01-07T11:32:28;93220.00;;;10.06;61.65
8059;BME280;75058;42.668;23.396;2024-01-07T11:34:57;93229.94;;;9.89;62.61
8059;BME280;75058;42.668;23.396;2024-01-07T11:37:26;93212.94;;;10.01;62.30
8059;BME280;75058;42.668;23.396;2024-01-07T11:39:56;93223.16;;;9.93;62.66
8059;BME280;75058;42.668;23.396;2024-01-07T11:42:25;93229.69;;;9.90;62.73
8059;BME280;75058;42.668;23.396;2024-01-07T11:44:54;93234.31;;;10.29;61.56
8059;BME280;75058;42.668;23.396;2024-01-07T11:47:28;93235.28;;;10.58;60.37
8059;BME280;75058;42.668;23.396;2024-01-07T11:49:56;93230.44;;;10.80;59.98
8059;BME280;75058;42.668;23.396;2024-01-07T11:52:24;93224.31;;;10.51;60.57
8059;BME280;75058;42.668;23.396;2024-01-07T11:54:52;93232.16;;;10.56;59.82
8059;BME280;75058;42.668;23.396;2024-01-07T11:57:21;93238.13;;;10.66;59.28
8059;BME280;75058;42.668;23.396;2024-01-07T11:59:49;93234.41;;;10.77;58.59
8059;BME280;75058;42.668;23.396;2024-01-07T12:02:19;93227.16;;;10.64;58.96
8059;BME280;75058;42.668;23.396;2024-01-07T12:04:48;93228.06;;;10.88;58.17
8059;BME280;75058;42.668;23.396;2024-01-07T12:07:16;93229.19;;;11.21;57.29
8059;BME280;75058;42.668;23.396;2024-01-07T12:09:45;93220.22;;;11.27;56.93
8059;BME280;75058;42.668;23.396;2024-01-07T12:12:14;93219.63;;;11.40;55.74
8059;BME280;75058;42.668;23.396;2024-01-07T12:14:42;93217.69;;;11.17;56.15
8059;BME280;75058;42.668;23.396;2024-01-07T12:17:10;93227.53;;;11.35;55.09
8059;BME280;75058;42.668;23.396;2024-01-07T12:19:41;93227.13;;;11.52;54.70
8059;BME280;75058;42.668;23.396;2024-01-07T12:22:11;93218.47;;;11.56;54.13
8059;BME280;75058;42.668;23.396;2024-01-07T12:24:39;93229.59;;;11.72;54.70
8059;BME280;75058;42.668;23.396;2024-01-07T12:27:07;93236.03;;;11.51;54.47
8059;BME280;75058;42.668;23.396;2024-01-07T12:29:36;93242.13;;;11.41;55.47
8059;BME280;75058;42.668;23.396;2024-01-07T12:32:05;93241.97;;;11.61;54.07
8059;BME280;75058;42.668;23.396;2024-01-07T12:34:36;93236.72;;;11.61;54.47
8059;BME280;75058;42.668;23.396;2024-01-07T12:37:04;93240.25;;;11.47;54.50
8059;BME280;75058;42.668;23.396;2024-01-07T12:39:34;93238.53;;;11.66;53.47
8059;BME280;75058;42.668;23.396;2024-01-07T12:42:03;93228.75;;;11.82;54.38
8059;BME280;75058;42.668;23.396;2024-01-07T12:44:31;93219.91;;;11.34;54.63
8059;BME280;75058;42.668;23.396;2024-01-07T12:46:59;93239.72;;;11.50;55.13
8059;BME280;75058;42.668;23.396;2024-01-07T12:49:27;93242.84;;;11.52;55.00
8059;BME280;75058;42.668;23.396;2024-01-07T12:51:55;93233.34;;;11.61;54.99
8059;BME280;75058;42.668;23.396;2024-01-07T12:54:24;93239.72;;;11.50;55.91
8059;BME280;75058;42.668;23.396;2024-01-07T12:56:54;93239.63;;;11.60;56.04
8059;BME280;75058;42.668;23.396;2024-01-07T12:59:22;93235.25;;;11.50;55.50
8059;BME280;75058;42.668;23.396;2024-01-07T13:01:50;93241.22;;;11.22;57.14
8059;BME280;75058;42.668;23.396;2024-01-07T13:04:19;93247.41;;;11.36;56.06
8059;BME280;75058;42.668;23.396;2024-01-07T13:06:48;93251.81;;;11.41;55.80
8059;BME280;75058;42.668;23.396;2024-01-07T13:09:16;93258.69;;;11.32;55.57
8059;BME280;75058;42.668;23.396;2024-01-07T13:11:44;93261.56;;;11.35;55.75
8059;BME280;75058;42.668;23.396;2024-01-07T13:14:14;93253.16;;;11.38;57.22
8059;BME280;75058;42.668;23.396;2024-01-07T13:16:42;93251.34;;;11.34;57.57
8059;BME280;75058;42.668;23.396;2024-01-07T13:19:11;93254.34;;;11.17;58.24